Time;durP1;ratioP1;P1;durP2;ratioP2;P2;SDS_P1;SDS_P2;PMS_P1;PMS_P2;Temp;Humidity;BMP_temperature;BMP_pressure;BME280_temperature;BME280_humidity;BME280_pressure;Samples;Min_cycle;Max_cycle;Signal;HPM_P1;HPM_P2
2023/03/26 00:02:14;;;;;;;;;0.25;0.00;;;;;;;;5082044;28;9721;-81
2023/03/26 00:04:41;;;;;;;;;2.00;0.00;;;;;;;;5081628;28;8812;-81
2023/03/26 00:07:08;;;;;;;;;0.00;0.00;;;;;;;;5063654;28;8813;-81
2023/03/26 00:09:33;;;;;;;;;0.00;0.00;;;;;;;;5048600;28;10450;-81
2023/03/26 00:11:59;;;;;;;;;1.00;0.25;;;;;;;;5055382;28;10651;-81
2023/03/26 00:14:25;;;;;;;;;6.50;1.00;;;;;;;;5062016;28;8800;-81
2023/03/26 00:16:52;;;;;;;;;0.00;0.00;;;;;;;;5045847;28;8807;-81
2023/03/26 00:19:17;;;;;;;;;2.00;0.25;;;;;;;;5047345;28;10253;-81
2023/03/26 00:21:42;;;;;;;;;1.00;0.00;;;;;;;;5064903;28;10616;-81
2023/03/26 00:24:13;;;;;;;;;0.75;0.00;;;;;;;;5047403;28;9652;-80
2023/03/26 00:26:39;;;;;;;;;0.00;0.00;;;;;;;;5064344;28;8780;-81
2023/03/26 00:29:07;;;;;;;;;0.00;0.00;;;;;;;;5065393;28;10544;-81
2023/03/26 00:31:32;;;;;;;;;1.00;0.00;;;;;;;;5060664;28;10662;-81
2023/03/26 00:33:58;;;;;;;;;0.00;0.00;;;;;;;;5085204;28;10159;-81
2023/03/26 00:36:25;;;;;;;;;0.00;0.00;;;;;;;;5066926;28;8793;-81
2023/03/26 00:38:51;;;;;;;;;0.00;0.00;;;;;;;;5084933;28;11496;-81
2023/03/26 00:41:21;;;;;;;;;0.00;0.00;;;;;;;;5067072;28;10718;-81
2023/03/26 00:43:47;;;;;;;;;1.00;0.00;;;;;;;;5085068;28;10584;-81
2023/03/26 00:46:13;;;;;;;;;1.00;0.00;;;;;;;;5066593;28;10463;-81
2023/03/26 00:48:41;;;;;;;;;0.50;0.00;;;;;;;;5066673;28;8813;-81
2023/03/26 00:51:07;;;;;;;;;0.00;0.00;;;;;;;;5066467;28;10235;-81
2023/03/26 00:53:32;;;;;;;;;0.00;0.00;;;;;;;;5066948;28;10239;-81
2023/03/26 00:55:59;;;;;;;;;0.00;0.00;;;;;;;;5082884;28;10580;-81
2023/03/26 00:58:25;;;;;;;;;0.00;0.00;;;;;;;;5083533;28;8816;-81
2023/03/26 01:00:52;;;;;;;;;0.00;0.00;;;;;;;;5084125;28;10970;-81
2023/03/26 01:03:18;;;;;;;;;0.00;0.00;;;;;;;;5083595;28;8845;-81
2023/03/26 01:05:44;;;;;;;;;1.00;0.00;;;;;;;;5084316;28;10699;-81
2023/03/26 01:08:16;;;;;;;;;0.00;0.00;;;;;;;;5083407;28;10641;-80
2023/03/26 01:10:43;;;;;;;;;0.25;0.25;;;;;;;;5066160;28;10923;-80
2023/03/26 01:13:08;;;;;;;;;0.00;0.00;;;;;;;;5066447;28;10592;-81
2023/03/26 01:15:37;;;;;;;;;0.00;0.00;;;;;;;;5066509;28;10402;-81
2023/03/26 01:18:04;;;;;;;;;0.50;0.00;;;;;;;;5084226;28;8726;-81
2023/03/26 01:20:31;;;;;;;;;2.50;1.00;;;;;;;;5083080;28;10758;-81
2023/03/26 01:23:01;;;;;;;;;0.00;0.00;;;;;;;;5083092;28;10633;-81
2023/03/26 01:25:30;;;;;;;;;0.00;0.00;;;;;;;;5065711;28;10616;-81
2023/03/26 01:27:56;;;;;;;;;2.50;0.00;;;;;;;;5082676;28;10619;-80
2023/03/26 01:30:40;;;;;;;;;0.00;0.00;;;;;;;;5066064;28;10921;-80
2023/03/26 01:33:14;;;;;;;;;0.75;0.00;;;;;;;;5065839;28;8864;-81
2023/03/26 01:35:45;;;;;;;;;1.00;0.00;;;;;;;;5084569;28;10576;-81
2023/03/26 01:38:34;;;;;;;;;0.25;0.25;;;;;;;;5084094;28;10599;-81
2023/03/26 01:41:05;;;;;;;;;2.25;0.75;;;;;;;;5055099;28;10451;-81
2023/03/26 01:43:38;;;;;;;;;0.50;0.50;;;;;;;;5084357;28;10557;-81
2023/03/26 01:46:06;;;;;;;;;0.00;0.00;;;;;;;;5082434;28;10679;-81
2023/03/26 01:48:44;;;;;;;;;1.00;0.00;;;;;;;;5065624;28;10393;-80
2023/03/26 01:51:11;;;;;;;;;0.00;0.00;;;;;;;;5065322;28;11171;-81
2023/03/26 01:53:43;;;;;;;;;1.00;1.00;;;;;;;;5084546;28;10842;-81
2023/03/26 01:56:15;;;;;;;;;0.25;0.25;;;;;;;;5082028;28;11013;-81
2023/03/26 01:58:50;;;;;;;;;1.00;0.00;;;;;;;;5082459;28;10568;-81
2023/03/26 02:01:26;;;;;;;;;0.25;0.25;;;;;;;;5083856;28;10665;-81
2023/03/26 02:04:03;;;;;;;;;0.00;0.00;;;;;;;;5082323;28;10646;-81
2023/03/26 02:06:36;;;;;;;;;0.00;0.00;;;;;;;;5083836;28;10412;-81
2023/03/26 02:09:04;;;;;;;;;0.50;0.00;;;;;;;;5065613;28;10488;-81
2023/03/26 02:11:30;;;;;;;;;3.75;0.75;;;;;;;;5065991;28;10850;-81
2023/03/26 02:13:55;;;;;;;;;0.00;0.00;;;;;;;;5082106;28;10651;-80
2023/03/26 02:16:20;;;;;;;;;3.25;0.25;;;;;;;;5081960;28;8813;-81
2023/03/26 02:18:50;;;;;;;;;1.50;1.00;;;;;;;;5082859;28;8901;-81
2023/03/26 02:21:20;;;;;;;;;0.00;0.00;;;;;;;;5065466;28;10252;-81
2023/03/26 02:23:47;;;;;;;;;0.00;0.00;;;;;;;;5065712;28;10434;-81
2023/03/26 02:26:15;;;;;;;;;0.00;0.00;;;;;;;;5083009;28;10545;-81
2023/03/26 02:28:40;;;;;;;;;0.00;0.00;;;;;;;;5065526;28;10353;-81
2023/03/26 02:31:08;;;;;;;;;0.50;0.00;;;;;;;;5081406;28;10497;-81
2023/03/26 02:33:34;;;;;;;;;3.00;0.00;;;;;;;;5083884;28;8726;-81
2023/03/26 02:36:00;;;;;;;;;3.00;0.00;;;;;;;;5083454;28;10586;-81
2023/03/26 02:38:26;;;;;;;;;1.00;1.00;;;;;;;;5064624;28;8816;-81
2023/03/26 02:40:53;;;;;;;;;0.00;0.00;;;;;;;;5065080;28;10790;-81
2023/03/26 02:43:18;;;;;;;;;1.00;1.00;;;;;;;;5083208;28;8791;-81
2023/03/26 02:45:43;;;;;;;;;1.00;1.00;;;;;;;;5081287;28;10557;-81
2023/03/26 02:48:09;;;;;;;;;0.00;0.00;;;;;;;;5065057;28;8820;-81
2023/03/26 02:50:35;;;;;;;;;1.00;1.00;;;;;;;;5065166;28;9896;-81
2023/03/26 02:53:01;;;;;;;;;1.50;0.00;;;;;;;;5083025;28;8806;-81
2023/03/26 02:55:26;;;;;;;;;3.00;0.00;;;;;;;;5064776;28;11746;-81
2023/03/26 02:57:51;;;;;;;;;1.00;1.00;;;;;;;;5081793;28;8851;-81
2023/03/26 03:00:17;;;;;;;;;0.00;0.00;;;;;;;;5081063;28;10224;-81
2023/03/26 03:02:46;;;;;;;;;0.00;0.00;;;;;;;;5065135;28;8821;-81
2023/03/26 03:05:12;;;;;;;;;2.75;1.00;;;;;;;;5081272;28;8789;-81
2023/03/26 03:07:38;;;;;;;;;1.50;0.25;;;;;;;;5083181;28;10895;-81
2023/03/26 03:10:09;;;;;;;;;0.00;0.00;;;;;;;;5082889;28;10891;-81
2023/03/26 03:12:35;;;;;;;;;1.00;0.00;;;;;;;;5082682;28;8803;-81
2023/03/26 03:15:00;;;;;;;;;0.00;0.00;;;;;;;;5080934;28;11791;-81
2023/03/26 03:17:26;;;;;;;;;2.50;1.00;;;;;;;;5081197;28;10910;-81
2023/03/26 03:19:51;;;;;;;;;0.00;0.00;;;;;;;;5081443;28;9905;-81
2023/03/26 03:22:17;;;;;;;;;0.00;0.00;;;;;;;;5081335;28;8801;-81
2023/03/26 03:24:42;;;;;;;;;3.75;0.00;;;;;;;;5080971;28;8813;-81
2023/03/26 03:27:08;;;;;;;;;0.00;0.00;;;;;;;;5081172;28;8837;-81
2023/03/26 03:29:33;;;;;;;;;0.00;0.00;;;;;;;;5080860;28;10147;-81
2023/03/26 03:31:59;;;;;;;;;1.50;0.50;;;;;;;;5082670;28;9560;-81
2023/03/26 03:34:24;;;;;;;;;0.00;0.00;;;;;;;;5081041;28;8817;-81
2023/03/26 03:36:49;;;;;;;;;0.00;0.00;;;;;;;;5081419;28;8825;-81
2023/03/26 03:39:15;;;;;;;;;0.25;0.25;;;;;;;;5082341;28;8846;-81
2023/03/26 03:41:40;;;;;;;;;0.00;0.00;;;;;;;;5081149;28;8829;-81
2023/03/26 03:44:05;;;;;;;;;0.00;0.00;;;;;;;;5082501;28;8809;-81
2023/03/26 03:46:30;;;;;;;;;0.00;0.00;;;;;;;;5080520;28;9655;-81
2023/03/26 03:48:56;;;;;;;;;0.00;0.00;;;;;;;;5082816;28;8816;-81
2023/03/26 03:51:21;;;;;;;;;4.50;0.00;;;;;;;;5083238;28;9600;-82
2023/03/26 03:53:48;;;;;;;;;0.00;0.00;;;;;;;;5084629;28;8801;-81
2023/03/26 03:56:16;;;;;;;;;0.00;0.00;;;;;;;;5084192;28;8797;-81
2023/03/26 03:58:44;;;;;;;;;0.00;0.00;;;;;;;;5083965;28;10753;-82
2023/03/26 04:01:12;;;;;;;;;0.25;0.00;;;;;;;;5067383;28;10700;-81
2023/03/26 04:03:38;;;;;;;;;0.00;0.00;;;;;;;;5085657;28;10764;-81
2023/03/26 04:06:05;;;;;;;;;0.00;0.00;;;;;;;;5085815;28;10653;-81
2023/03/26 04:08:31;;;;;;;;;0.00;0.00;;;;;;;;5085621;28;8765;-81
2023/03/26 04:10:56;;;;;;;;;2.00;0.00;;;;;;;;5085945;28;10621;-81
2023/03/26 04:13:22;;;;;;;;;0.00;0.00;;;;;;;;5085445;28;8834;-81
2023/03/26 04:15:47;;;;;;;;;1.00;0.00;;;;;;;;5085473;28;8826;-81
2023/03/26 04:18:13;;;;;;;;;0.00;0.00;;;;;;;;5084282;28;9855;-81
2023/03/26 04:20:40;;;;;;;;;0.00;0.00;;;;;;;;5085340;28;8813;-82
2023/03/26 04:23:07;;;;;;;;;0.00;0.00;;;;;;;;5084303;28;8827;-81
2023/03/26 04:25:35;;;;;;;;;0.00;0.00;;;;;;;;5083333;28;10688;-81
2023/03/26 04:28:05;;;;;;;;;0.00;0.00;;;;;;;;5085012;28;10810;-81
2023/03/26 04:30:32;;;;;;;;;1.75;0.00;;;;;;;;5083554;28;10429;-81
2023/03/26 04:32:59;;;;;;;;;0.00;0.00;;;;;;;;5084116;28;10829;-81
2023/03/26 04:35:25;;;;;;;;;1.00;0.00;;;;;;;;5083898;28;10752;-81
2023/03/26 04:37:51;;;;;;;;;0.00;0.00;;;;;;;;5066853;28;10829;-81
2023/03/26 04:40:19;;;;;;;;;1.00;0.00;;;;;;;;5083943;28;8746;-81
2023/03/26 04:42:44;;;;;;;;;0.50;0.00;;;;;;;;5083410;28;10972;-81
2023/03/26 04:45:10;;;;;;;;;0.00;0.00;;;;;;;;5085008;28;10697;-81
2023/03/26 04:47:37;;;;;;;;;0.00;0.00;;;;;;;;5084963;28;8908;-81
2023/03/26 04:50:03;;;;;;;;;1.00;0.00;;;;;;;;5067086;28;8805;-81
2023/03/26 04:52:29;;;;;;;;;0.00;0.00;;;;;;;;5066572;28;10947;-82
2023/03/26 04:54:54;;;;;;;;;0.00;0.00;;;;;;;;5083179;28;11484;-81
2023/03/26 04:57:23;;;;;;;;;0.00;0.00;;;;;;;;5083115;28;10095;-82
2023/03/26 04:59:48;;;;;;;;;0.00;0.00;;;;;;;;5084859;28;8813;-81
2023/03/26 05:02:14;;;;;;;;;1.00;0.00;;;;;;;;5084293;28;10782;-81
2023/03/26 05:04:40;;;;;;;;;0.00;0.00;;;;;;;;5084677;28;9612;-81
2023/03/26 05:07:06;;;;;;;;;0.50;0.00;;;;;;;;5084804;28;8832;-81
2023/03/26 05:09:31;;;;;;;;;0.00;0.00;;;;;;;;5084807;28;9675;-81
2023/03/26 05:11:57;;;;;;;;;0.00;0.00;;;;;;;;5084201;28;10894;-81
2023/03/26 05:14:22;;;;;;;;;0.00;0.00;;;;;;;;5083506;28;9547;-82
2023/03/26 05:16:49;;;;;;;;;1.00;0.00;;;;;;;;5084350;28;8924;-81
2023/03/26 05:19:14;;;;;;;;;0.00;0.00;;;;;;;;5084889;28;8901;-81
2023/03/26 05:21:40;;;;;;;;;1.00;0.00;;;;;;;;5084324;28;10899;-81
2023/03/26 05:24:05;;;;;;;;;0.00;0.00;;;;;;;;5074908;28;8820;-81
2023/03/26 05:26:32;;;;;;;;;0.00;0.00;;;;;;;;5064999;28;8831;-81
2023/03/26 05:28:57;;;;;;;;;0.00;0.00;;;;;;;;5084358;28;8800;-81
2023/03/26 05:31:25;;;;;;;;;0.00;0.00;;;;;;;;5061634;28;45445;-80
2023/03/26 05:33:51;;;;;;;;;0.00;0.00;;;;;;;;5077134;28;8764;-81
2023/03/26 05:36:17;;;;;;;;;0.00;0.00;;;;;;;;5065970;28;10941;-81
2023/03/26 05:38:46;;;;;;;;;2.25;1.25;;;;;;;;5064895;28;11473;-81
2023/03/26 05:41:12;;;;;;;;;0.00;0.00;;;;;;;;5051248;28;11129;-81
2023/03/26 05:43:37;;;;;;;;;0.50;0.00;;;;;;;;5046067;28;10863;-81
2023/03/26 05:46:02;;;;;;;;;0.25;0.00;;;;;;;;5045632;28;9922;-81
2023/03/26 05:48:27;;;;;;;;;0.00;0.00;;;;;;;;5064047;28;8808;-81
2023/03/26 05:50:54;;;;;;;;;0.50;0.00;;;;;;;;5053300;28;9548;-81
2023/03/26 05:53:20;;;;;;;;;0.00;0.00;;;;;;;;5066925;28;8735;-81
2023/03/26 05:55:49;;;;;;;;;0.00;0.00;;;;;;;;5044790;28;11234;-81
2023/03/26 05:58:15;;;;;;;;;0.00;0.00;;;;;;;;5067471;28;10965;-81
2023/03/26 06:00:40;;;;;;;;;1.00;0.00;;;;;;;;5045374;28;10870;-81
2023/03/26 06:03:11;;;;;;;;;0.00;0.00;;;;;;;;5045488;28;8828;-81
2023/03/26 06:05:36;;;;;;;;;0.00;0.00;;;;;;;;5063783;28;8836;-81
2023/03/26 06:08:02;;;;;;;;;0.50;0.00;;;;;;;;5054583;28;10665;-82
2023/03/26 06:10:28;;;;;;;;;0.75;0.00;;;;;;;;5083670;28;8790;-81
2023/03/26 06:12:53;;;;;;;;;1.25;0.00;;;;;;;;5065434;28;8912;-81
2023/03/26 06:15:18;;;;;;;;;1.00;1.00;;;;;;;;5080935;28;9885;-81
2023/03/26 06:17:43;;;;;;;;;0.00;0.00;;;;;;;;5082358;28;8814;-81
2023/03/26 06:20:09;;;;;;;;;0.00;0.00;;;;;;;;5064806;28;8833;-81
2023/03/26 06:22:34;;;;;;;;;0.75;0.00;;;;;;;;5064773;28;8817;-81
2023/03/26 06:25:00;;;;;;;;;0.00;0.00;;;;;;;;5064601;28;10422;-81
2023/03/26 06:27:25;;;;;;;;;0.00;0.00;;;;;;;;5065293;28;9612;-81
2023/03/26 06:29:50;;;;;;;;;0.00;0.00;;;;;;;;5083553;28;8887;-81
2023/03/26 06:32:15;;;;;;;;;0.50;0.00;;;;;;;;5083174;28;8878;-81
2023/03/26 06:34:41;;;;;;;;;0.00;0.00;;;;;;;;5083537;28;8797;-81
2023/03/26 06:37:06;;;;;;;;;1.00;0.00;;;;;;;;5064442;28;9631;-80
2023/03/26 06:39:31;;;;;;;;;0.00;0.00;;;;;;;;5072915;28;8796;-81
2023/03/26 06:41:57;;;;;;;;;0.00;0.00;;;;;;;;5062957;28;8796;-81
2023/03/26 06:44:22;;;;;;;;;1.00;0.00;;;;;;;;5044919;28;10008;-81
2023/03/26 06:46:47;;;;;;;;;0.75;0.00;;;;;;;;5063013;28;8958;-81
2023/03/26 06:49:13;;;;;;;;;1.75;0.50;;;;;;;;5044694;28;8886;-81
2023/03/26 06:51:39;;;;;;;;;0.00;0.00;;;;;;;;5059837;28;8817;-81
2023/03/26 06:54:05;;;;;;;;;0.00;0.00;;;;;;;;5062641;28;8753;-80
2023/03/26 06:56:30;;;;;;;;;2.00;0.00;;;;;;;;5062210;28;10873;-81
2023/03/26 06:58:55;;;;;;;;;1.00;1.00;;;;;;;;5062855;28;8904;-81
2023/03/26 07:01:21;;;;;;;;;0.50;0.00;;;;;;;;5044428;28;8864;-81
2023/03/26 07:03:46;;;;;;;;;0.00;0.00;;;;;;;;5044644;28;9959;-81
2023/03/26 07:06:11;;;;;;;;;0.00;0.00;;;;;;;;5062041;28;8821;-81
2023/03/26 07:08:37;;;;;;;;;0.25;0.25;;;;;;;;5069911;28;8829;-81
2023/03/26 07:11:02;;;;;;;;;0.00;0.00;;;;;;;;5064806;28;8840;-81
2023/03/26 07:13:32;;;;;;;;;4.50;0.00;;;;;;;;5084657;28;9926;-81
2023/03/26 07:15:59;;;;;;;;;0.00;0.00;;;;;;;;5047802;28;8748;-82
2023/03/26 07:18:25;;;;;;;;;0.00;0.00;;;;;;;;5066539;28;10851;-82
2023/03/26 07:20:51;;;;;;;;;2.00;0.00;;;;;;;;5073686;28;8768;-82
2023/03/26 07:23:19;;;;;;;;;0.00;0.00;;;;;;;;5057670;28;11423;-82
2023/03/26 07:25:45;;;;;;;;;0.00;0.00;;;;;;;;5085214;28;8931;-82
2023/03/26 07:28:23;;;;;;;;;2.25;0.00;;;;;;;;5092068;28;10797;-80
2023/03/26 07:30:57;;;;;;;;;1.50;0.50;;;;;;;;5084001;28;10906;-82
2023/03/26 07:33:25;;;;;;;;;3.50;1.00;;;;;;;;5051378;28;11124;-81
2023/03/26 07:36:00;;;;;;;;;1.00;0.00;;;;;;;;5069213;28;10758;-81
2023/03/26 07:38:27;;;;;;;;;3.50;0.00;;;;;;;;5069114;28;10656;-81
2023/03/26 07:41:00;;;;;;;;;1.75;1.75;;;;;;;;5052513;28;10768;-81
2023/03/26 07:43:44;;;;;;;;;0.75;0.75;;;;;;;;5072198;28;11063;-81
2023/03/26 07:46:10;;;;;;;;;0.75;0.00;;;;;;;;5055546;28;10773;-80
2023/03/26 07:48:39;;;;;;;;;0.50;0.50;;;;;;;;5074026;28;10842;-81
2023/03/26 07:51:05;;;;;;;;;1.75;0.25;;;;;;;;5083749;28;10699;-81
2023/03/26 07:53:31;;;;;;;;;0.75;0.00;;;;;;;;5076986;28;10996;-81
2023/03/26 07:55:56;;;;;;;;;3.00;0.00;;;;;;;;5095597;28;10784;-80
2023/03/26 07:58:36;;;;;;;;;1.50;0.50;;;;;;;;5076108;28;8832;-80
2023/03/26 08:01:11;;;;;;;;;3.00;0.00;;;;;;;;5092938;28;8777;-80
2023/03/26 08:03:36;;;;;;;;;0.75;0.00;;;;;;;;5065783;28;10913;-81
2023/03/26 08:06:02;;;;;;;;;0.75;0.50;;;;;;;;5057876;28;10755;-82
2023/03/26 08:08:33;;;;;;;;;3.50;1.00;;;;;;;;5055985;28;8829;-82
2023/03/26 08:11:24;;;;;;;;;2.00;0.00;;;;;;;;5084179;28;8821;-83
2023/03/26 08:14:03;;;;;;;;;1.50;0.50;;;;;;;;5081668;28;10832;-82
2023/03/26 08:16:50;;;;;;;;;3.25;0.50;;;;;;;;5083024;28;10549;-84
2023/03/26 08:19:31;;;;;;;;;0.00;0.00;;;;;;;;5084524;28;10662;-83
2023/03/26 08:21:59;;;;;;;;;1.00;0.00;;;;;;;;5082459;28;10628;-83
2023/03/26 08:24:27;;;;;;;;;1.75;1.00;;;;;;;;5079884;28;10408;-83
2023/03/26 08:26:57;;;;;;;;;0.00;0.00;;;;;;;;5079249;28;11774;-83
2023/03/26 08:29:44;;;;;;;;;1.00;0.00;;;;;;;;5064930;28;10325;-81
2023/03/26 08:32:12;;;;;;;;;1.00;0.00;;;;;;;;5077250;28;10393;-79
2023/03/26 08:34:38;;;;;;;;;6.00;0.00;;;;;;;;5078214;28;10699;-79
2023/03/26 08:37:03;;;;;;;;;0.00;0.00;;;;;;;;5056485;28;10607;-81
2023/03/26 08:39:29;;;;;;;;;7.00;0.00;;;;;;;;5075066;28;9548;-82
2023/03/26 08:42:20;;;;;;;;;1.50;0.50;;;;;;;;5076393;28;8798;-86
2023/03/26 08:45:04;;;;;;;;;0.00;0.00;;;;;;;;5056542;28;10050;-83
2023/03/26 08:47:30;;;;;;;;;3.50;1.00;;;;;;;;5059742;28;10377;-83
2023/03/26 08:50:30;;;;;;;;;1.50;1.25;;;;;;;;5069866;28;10472;-83
2023/03/26 08:52:58;;;;;;;;;0.25;0.25;;;;;;;;5004783;28;8781;-83
2023/03/26 08:55:38;;;;;;;;;1.25;0.00;;;;;;;;5002472;28;10643;-83
2023/03/26 08:58:22;;;;;;;;;0.00;0.00;;;;;;;;5010645;28;10424;-81
2023/03/26 09:00:56;;;;;;;;;1.00;0.00;;;;;;;;5013565;28;10241;-80
2023/03/26 09:03:21;;;;;;;;;0.00;0.00;;;;;;;;5015159;28;10237;-80
2023/03/26 09:05:49;;;;;;;;;0.00;0.00;;;;;;;;5022192;28;10249;-83
2023/03/26 09:08:14;;;;;;;;;1.75;0.00;;;;;;;;5022302;28;8802;-85
2023/03/26 09:10:40;;;;;;;;;0.25;0.00;;;;;;;;5005398;28;10338;-85
2023/03/26 09:13:07;;;;;;;;;0.00;0.00;;;;;;;;5005042;28;8863;-85
2023/03/26 09:15:39;;;;;;;;;0.00;0.00;;;;;;;;5022054;28;8787;-84
2023/03/26 09:18:10;;;;;;;;;0.00;0.00;;;;;;;;5021330;28;10400;-81
2023/03/26 09:20:49;;;;;;;;;1.00;0.00;;;;;;;;5005461;28;10560;-82
2023/03/26 09:23:33;;;;;;;;;0.00;0.00;;;;;;;;5005771;28;10330;-82
2023/03/26 09:26:22;;;;;;;;;2.75;0.00;;;;;;;;5005890;28;10513;-85
2023/03/26 09:29:03;;;;;;;;;3.50;0.00;;;;;;;;5044257;28;10425;-84
2023/03/26 09:31:28;;;;;;;;;1.50;0.00;;;;;;;;5059129;28;10235;-85
2023/03/26 09:33:58;;;;;;;;;1.00;0.00;;;;;;;;5059081;28;10051;-84
2023/03/26 09:36:42;;;;;;;;;0.75;0.00;;;;;;;;5059315;28;10233;-84
2023/03/26 09:39:17;;;;;;;;;0.00;0.00;;;;;;;;5061484;28;10329;-85
2023/03/26 09:41:51;;;;;;;;;0.50;0.00;;;;;;;;5061734;28;10401;-85
2023/03/26 09:44:16;;;;;;;;;0.00;0.00;;;;;;;;5062165;28;10316;-85
2023/03/26 09:46:54;;;;;;;;;1.00;1.00;;;;;;;;5058846;28;10429;-85
2023/03/26 09:49:21;;;;;;;;;0.00;0.00;;;;;;;;5040885;28;8734;-85
2023/03/26 09:51:47;;;;;;;;;1.00;0.00;;;;;;;;5058755;28;10175;-84
2023/03/26 09:54:34;;;;;;;;;1.00;0.00;;;;;;;;5062480;28;10034;-83
2023/03/26 09:57:06;;;;;;;;;0.00;0.00;;;;;;;;5065829;28;8861;-84
2023/03/26 09:59:37;;;;;;;;;1.00;1.00;;;;;;;;5084319;28;10179;-84
2023/03/26 10:02:03;;;;;;;;;0.00;0.00;;;;;;;;5061264;28;61280;-83
2023/03/26 10:04:40;;;;;;;;;0.25;0.25;;;;;;;;5025451;28;61933;-79
2023/03/26 10:07:18;;;;;;;;;0.50;0.50;;;;;;;;5021332;28;63900;-85
2023/03/26 10:10:00;;;;;;;;;1.00;0.00;;;;;;;;5029260;28;61813;-86
2023/03/26 10:12:28;;;;;;;;;0.25;0.00;;;;;;;;5021992;28;61920;-85
2023/03/26 10:14:59;;;;;;;;;0.00;0.00;;;;;;;;5023591;28;61787;-85
2023/03/26 10:17:37;;;;;;;;;0.00;0.00;;;;;;;;5020945;28;63552;-85
2023/03/26 10:20:04;;;;;;;;;0.00;0.00;;;;;;;;5039435;28;61876;-85
2023/03/26 10:22:30;;;;;;;;;0.00;0.00;;;;;;;;5025141;28;61898;-84
2023/03/26 10:24:55;;;;;;;;;1.00;0.00;;;;;;;;5043032;28;61744;-84
2023/03/26 10:27:38;;;;;;;;;1.00;0.00;;;;;;;;5024273;28;63420;-84
2023/03/26 10:30:04;;;;;;;;;3.00;0.00;;;;;;;;5042543;28;61877;-84
2023/03/26 10:32:44;;;;;;;;;0.00;0.00;;;;;;;;5024537;28;61862;-85
2023/03/26 10:35:18;;;;;;;;;2.75;0.00;;;;;;;;5043365;28;61786;-83
2023/03/26 10:38:02;;;;;;;;;0.00;0.00;;;;;;;;5063480;28;65006;-82
2023/03/26 10:40:42;;;;;;;;;0.00;0.00;;;;;;;;5082004;28;10266;-81
2023/03/26 10:43:10;;;;;;;;;0.00;0.00;;;;;;;;5052745;28;10027;-83
2023/03/26 10:45:46;;;;;;;;;0.00;0.00;;;;;;;;5086193;28;10370;-81
2023/03/26 10:48:30;;;;;;;;;1.25;0.00;;;;;;;;5084242;28;10067;-83
2023/03/26 10:51:02;;;;;;;;;1.00;0.00;;;;;;;;5071046;28;9959;-83
2023/03/26 10:53:47;;;;;;;;;1.00;0.00;;;;;;;;5066583;28;10157;-84
2023/03/26 10:56:21;;;;;;;;;0.00;0.00;;;;;;;;5083718;28;10002;-83
2023/03/26 10:58:47;;;;;;;;;0.25;0.00;;;;;;;;5079307;28;10409;-83
2023/03/26 11:01:18;;;;;;;;;0.00;0.00;;;;;;;;5063775;28;10300;-84
2023/03/26 11:03:50;;;;;;;;;0.00;0.00;;;;;;;;5064492;28;8766;-83
2023/03/26 11:06:37;;;;;;;;;0.00;0.00;;;;;;;;5062330;28;10109;-84
2023/03/26 11:09:15;;;;;;;;;0.00;0.00;;;;;;;;5062921;28;10388;-84
2023/03/26 11:11:47;;;;;;;;;0.00;0.00;;;;;;;;5064025;28;9949;-85
2023/03/26 11:14:15;;;;;;;;;0.00;0.00;;;;;;;;5041401;28;10123;-85
2023/03/26 11:17:01;;;;;;;;;0.00;0.00;;;;;;;;5041259;28;10086;-85
2023/03/26 11:19:45;;;;;;;;;0.00;0.00;;;;;;;;5058065;28;10141;-85
2023/03/26 11:22:19;;;;;;;;;0.00;0.00;;;;;;;;5063283;28;10134;-82
2023/03/26 11:25:05;;;;;;;;;0.00;0.00;;;;;;;;5043358;28;10195;-83
2023/03/26 11:28:04;;;;;;;;;0.00;0.00;;;;;;;;4980707;28;10185;-82
2023/03/26 11:30:36;;;;;;;;;0.00;0.00;;;;;;;;4997863;28;10423;-85
2023/03/26 11:33:04;;;;;;;;;0.00;0.00;;;;;;;;4967470;28;10653;-82
2023/03/26 11:35:34;;;;;;;;;0.00;0.00;;;;;;;;4978834;28;10299;-82
2023/03/26 11:38:05;;;;;;;;;0.00;0.00;;;;;;;;4981695;28;10230;-83
2023/03/26 11:40:30;;;;;;;;;0.00;0.00;;;;;;;;4981178;28;10790;-83
2023/03/26 11:42:59;;;;;;;;;0.00;0.00;;;;;;;;4981907;28;10134;-83
2023/03/26 11:45:26;;;;;;;;;0.00;0.00;;;;;;;;4965972;28;8792;-81
2023/03/26 11:47:55;;;;;;;;;0.00;0.00;;;;;;;;4967378;28;10040;-83
2023/03/26 11:50:22;;;;;;;;;0.00;0.00;;;;;;;;4969232;28;10216;-86
2023/03/26 11:52:47;;;;;;;;;0.00;0.00;;;;;;;;4980384;28;10012;-87
2023/03/26 11:55:13;;;;;;;;;0.00;0.00;;;;;;;;4980358;28;9989;-86
2023/03/26 11:57:41;;;;;;;;;0.00;0.00;;;;;;;;4979899;28;8819;-86
2023/03/26 12:00:16;;;;;;;;;0.00;0.00;;;;;;;;4980979;28;10100;-85
2023/03/26 12:02:42;;;;;;;;;0.00;0.00;;;;;;;;4980492;28;9872;-85
2023/03/26 12:05:16;;;;;;;;;0.00;0.00;;;;;;;;5024171;28;9698;-86
2023/03/26 12:07:51;;;;;;;;;0.00;0.00;;;;;;;;5057312;28;8891;-86
2023/03/26 12:10:38;;;;;;;;;0.00;0.00;;;;;;;;5040749;28;10497;-87
2023/03/26 12:13:20;;;;;;;;;0.00;0.00;;;;;;;;5066971;28;9751;-87
2023/03/26 12:15:45;;;;;;;;;0.00;0.00;;;;;;;;5044028;28;9581;-88
2023/03/26 12:18:38;;;;;;;;;0.00;0.00;;;;;;;;5057860;28;9712;-88
2023/03/26 12:21:07;;;;;;;;;0.00;0.00;;;;;;;;5061921;28;8743;-86
2023/03/26 12:23:38;;;;;;;;;1.00;0.00;;;;;;;;5051791;28;9713;-86
2023/03/26 12:26:10;;;;;;;;;0.00;0.00;;;;;;;;5051722;28;9469;-83
2023/03/26 12:28:36;;;;;;;;;0.00;0.00;;;;;;;;5055131;28;9589;-83
2023/03/26 12:31:03;;;;;;;;;0.50;0.00;;;;;;;;5061881;28;9951;-83
2023/03/26 12:33:32;;;;;;;;;1.00;0.00;;;;;;;;5052393;28;8866;-83
2023/03/26 12:35:59;;;;;;;;;0.00;0.00;;;;;;;;5061775;28;10458;-84
2023/03/26 12:38:31;;;;;;;;;0.00;0.00;;;;;;;;5064753;28;9296;-85
2023/03/26 12:41:13;;;;;;;;;1.00;0.00;;;;;;;;5065606;28;10614;-84
2023/03/26 12:44:01;;;;;;;;;0.00;0.00;;;;;;;;5065168;28;9557;-85
2023/03/26 12:46:26;;;;;;;;;0.00;0.00;;;;;;;;5062629;28;9396;-82
2023/03/26 12:48:57;;;;;;;;;0.00;0.00;;;;;;;;5070679;28;9427;-81
2023/03/26 12:51:39;;;;;;;;;0.00;0.00;;;;;;;;5065488;28;9972;-86
2023/03/26 12:54:22;;;;;;;;;0.00;0.00;;;;;;;;5064961;28;9491;-84
2023/03/26 12:56:49;;;;;;;;;0.00;0.00;;;;;;;;5059238;28;9524;-84
2023/03/26 12:59:17;;;;;;;;;1.00;0.00;;;;;;;;5073888;28;10425;-84
2023/03/26 13:02:08;;;;;;;;;0.00;0.00;;;;;;;;5068936;28;10345;-84
2023/03/26 13:04:55;;;;;;;;;1.67;0.00;;;;;;;;5076530;28;9417;-83
2023/03/26 13:07:32;;;;;;;;;0.00;0.00;;;;;;;;5072649;28;10476;-85
2023/03/26 13:10:21;;;;;;;;;1.00;0.00;;;;;;;;5073698;28;9884;-85
2023/03/26 13:12:50;;;;;;;;;0.00;0.00;;;;;;;;5068753;28;10048;-85
2023/03/26 13:15:27;;;;;;;;;0.00;0.00;;;;;;;;5075510;28;9370;-84
2023/03/26 13:17:52;;;;;;;;;0.00;0.00;;;;;;;;5055453;28;9132;-83
2023/03/26 13:20:21;;;;;;;;;0.33;0.00;;;;;;;;5072954;28;9473;-84
2023/03/26 13:22:56;;;;;;;;;0.00;0.00;;;;;;;;5059773;28;10138;-84
2023/03/26 13:25:30;;;;;;;;;0.00;0.00;;;;;;;;5057170;28;9474;-84
2023/03/26 13:28:08;;;;;;;;;0.00;0.00;;;;;;;;5074383;28;10419;-84
2023/03/26 13:30:52;;;;;;;;;0.00;0.00;;;;;;;;5072395;28;9435;-84
2023/03/26 13:33:27;;;;;;;;;0.00;0.00;;;;;;;;5047389;28;10140;-84
2023/03/26 13:35:58;;;;;;;;;0.00;0.00;;;;;;;;5064940;28;9475;-84
2023/03/26 13:38:50;;;;;;;;;0.00;0.00;;;;;;;;5065820;28;9753;-84
2023/03/26 13:41:26;;;;;;;;;0.00;0.00;;;;;;;;5077705;28;9451;-84
2023/03/26 13:43:54;;;;;;;;;0.00;0.00;;;;;;;;5077930;28;10051;-82
2023/03/26 13:46:32;;;;;;;;;1.00;0.00;;;;;;;;5084027;28;9230;-82
2023/03/26 13:49:12;;;;;;;;;0.00;0.00;;;;;;;;5065427;28;9669;-82
2023/03/26 13:51:42;;;;;;;;;0.00;0.00;;;;;;;;5075050;28;9458;-81
2023/03/26 13:54:22;;;;;;;;;1.00;1.00;;;;;;;;5066465;28;10099;-81
2023/03/26 13:56:56;;;;;;;;;1.00;0.00;;;;;;;;5064937;28;9441;-86
2023/03/26 13:59:34;;;;;;;;;1.33;0.00;;;;;;;;5071648;28;9389;-86
2023/03/26 14:02:09;;;;;;;;;0.00;0.00;;;;;;;;5081312;28;9171;-87
2023/03/26 14:04:43;;;;;;;;;0.00;0.00;;;;;;;;5065683;28;10055;-86
2023/03/26 14:07:14;;;;;;;;;0.00;0.00;;;;;;;;5061996;28;9059;-86
2023/03/26 14:09:53;;;;;;;;;1.00;0.00;;;;;;;;5045208;28;8939;-78
2023/03/26 14:12:26;;;;;;;;;0.00;0.00;;;;;;;;5056373;28;10085;-81
2023/03/26 14:14:55;;;;;;;;;0.00;0.00;;;;;;;;5079374;28;10300;-80
2023/03/26 14:17:37;;;;;;;;;0.00;0.00;;;;;;;;5064682;28;9494;-81
2023/03/26 14:20:06;;;;;;;;;0.00;0.00;;;;;;;;5058035;28;9478;-83
2023/03/26 14:22:51;;;;;;;;;0.00;0.00;;;;;;;;5076461;28;9616;-83
2023/03/26 14:25:25;;;;;;;;;0.00;0.00;;;;;;;;5076798;28;10498;-82
2023/03/26 14:27:57;;;;;;;;;1.00;0.00;;;;;;;;5079277;28;9869;-84
2023/03/26 14:30:41;;;;;;;;;0.00;0.00;;;;;;;;5082374;28;9792;-83
2023/03/26 14:33:12;;;;;;;;;0.00;0.00;;;;;;;;5079165;28;10786;-83
2023/03/26 14:35:57;;;;;;;;;0.75;0.00;;;;;;;;5075586;28;9776;-82
2023/03/26 14:38:31;;;;;;;;;1.00;0.00;;;;;;;;5064436;28;9537;-82
2023/03/26 14:41:20;;;;;;;;;0.00;0.00;;;;;;;;5064882;28;9679;-82
2023/03/26 14:44:00;;;;;;;;;0.00;0.00;;;;;;;;5040745;28;9774;-83
2023/03/26 14:46:45;;;;;;;;;0.00;0.00;;;;;;;;5075903;28;9950;-83
2023/03/26 14:49:27;;;;;;;;;0.00;0.00;;;;;;;;5071810;28;9433;-82
2023/03/26 14:52:00;;;;;;;;;0.00;0.00;;;;;;;;5063110;28;9101;-80
2023/03/26 14:54:32;;;;;;;;;0.00;0.00;;;;;;;;5055198;28;8998;-83
2023/03/26 14:57:17;;;;;;;;;0.00;0.00;;;;;;;;5077329;28;10329;-81
2023/03/26 14:59:55;;;;;;;;;0.67;0.00;;;;;;;;5063644;28;9153;-81
2023/03/26 15:03:06;;;;;;;;;0.00;0.00;;;;;;;;5047340;28;9456;-80
2023/03/26 15:05:56;;;;;;;;;0.00;0.00;;;;;;;;5054422;28;9429;-80
2023/03/26 15:08:47;;;;;;;;;0.00;0.00;;;;;;;;5071447;28;9868;-80
2023/03/26 15:11:36;;;;;;;;;0.00;0.00;;;;;;;;5069707;28;9735;-80